Time;durP1;ratioP1;P1;durP2;ratioP2;P2;SDS_P1;SDS_P2;PMS_P1;PMS_P2;Temp;Humidity;BMP_temperature;BMP_pressure;BME280_temperature;BME280_humidity;BME280_pressure;Samples;Min_cycle;Max_cycle;Signal;HPM_P1;HPM_P2
2022/06/16 00:00:35;;;;;;;5.53;2.30;;;14.50;99.90;;;;;;5097313;28;20055;-84
2022/06/16 00:03:00;;;;;;;6.00;2.85;;;14.50;99.90;;;;;;5097274;28;20054;-84
2022/06/16 00:05:29;;;;;;;3.85;2.60;;;14.40;99.90;;;;;;5096135;28;20039;-84
2022/06/16 00:07:55;;;;;;;5.53;2.28;;;14.40;99.90;;;;;;5096185;28;20052;-84
2022/06/16 00:10:22;;;;;;;6.22;2.45;;;14.40;99.90;;;;;;5097430;28;20055;-84
2022/06/16 00:12:48;;;;;;;4.72;2.40;;;14.40;99.90;;;;;;5079038;28;20509;-85
2022/06/16 00:15:18;;;;;;;4.57;2.63;;;14.30;99.90;;;;;;5096959;28;20076;-84
2022/06/16 00:17:44;;;;;;;5.00;2.13;;;14.30;99.90;;;;;;5096380;28;20051;-85
2022/06/16 00:20:11;;;;;;;5.53;2.60;;;14.30;99.90;;;;;;5097188;28;20040;-86
2022/06/16 00:22:37;;;;;;;5.43;2.42;;;14.30;99.90;;;;;;5096926;28;20135;-86
2022/06/16 00:25:04;;;;;;;4.68;2.50;;;14.30;99.90;;;;;;5096729;28;20122;-85
2022/06/16 00:27:30;;;;;;;5.20;3.03;;;14.20;99.90;;;;;;5096755;28;20051;-84
2022/06/16 00:29:56;;;;;;;3.90;2.63;;;14.30;99.90;;;;;;5096688;28;20044;-84
2022/06/16 00:32:22;;;;;;;3.50;2.60;;;14.30;99.90;;;;;;5096673;28;20044;-85
2022/06/16 00:34:48;;;;;;;5.70;2.55;;;14.30;99.90;;;;;;5096718;28;20065;-85
2022/06/16 00:37:14;;;;;;;4.03;2.40;;;14.30;99.90;;;;;;5095349;28;20059;-85
2022/06/16 00:39:40;;;;;;;6.93;2.67;;;14.20;99.90;;;;;;5096185;28;20557;-85
2022/06/16 00:42:26;;;;;;;6.13;2.83;;;14.20;99.90;;;;;;5078679;28;20052;-83
2022/06/16 00:44:57;;;;;;;4.47;2.63;;;14.20;99.90;;;;;;5096544;28;20044;-84
2022/06/16 00:47:25;;;;;;;4.57;2.20;;;14.30;99.90;;;;;;5096068;28;20396;-85
2022/06/16 00:49:54;;;;;;;4.47;2.88;;;14.30;99.90;;;;;;5096327;28;20048;-83
2022/06/16 00:52:32;;;;;;;5.90;2.45;;;14.30;99.90;;;;;;5095284;28;20408;-84
2022/06/16 00:55:09;;;;;;;3.55;2.47;;;14.30;99.90;;;;;;5094840;28;20422;-85
2022/06/16 00:57:42;;;;;;;4.22;2.13;;;14.20;99.90;;;;;;5096236;28;20109;-84
2022/06/16 01:00:28;;;;;;;3.70;2.80;;;14.20;99.90;;;;;;5096162;28;20493;-83
2022/06/16 01:02:54;;;;;;;5.10;2.45;;;14.20;99.90;;;;;;5096644;28;20047;-86
2022/06/16 01:05:20;;;;;;;7.40;3.20;;;14.10;99.90;;;;;;5095049;28;20395;-85
2022/06/16 01:07:47;;;;;;;5.65;2.85;;;14.10;99.90;;;;;;5095702;28;20043;-84
2022/06/16 01:10:15;;;;;;;6.65;3.13;;;14.10;99.90;;;;;;5095976;28;20048;-85
2022/06/16 01:15:58;;;;;;;3.20;2.85;;;14.10;99.90;;;;;;5095323;28;20471;-84
2022/06/16 01:18:52;;;;;;;6.05;2.67;;;14.10;99.90;;;;;;5096171;28;20051;-84
2022/06/16 01:21:24;;;;;;;5.03;2.38;;;14.00;99.90;;;;;;5078273;28;20059;-84
2022/06/16 01:24:15;;;;;;;4.68;2.53;;;14.00;99.90;;;;;;5094419;28;20044;-84
2022/06/16 01:27:00;;;;;;;4.53;2.00;;;14.00;99.90;;;;;;5077799;28;20051;-85
2022/06/16 01:30:04;;;;;;;3.88;2.50;;;14.00;99.90;;;;;;5095692;28;20087;-84
2022/06/16 01:32:45;;;;;;;;;;;14.00;99.90;;;;;;5095790;28;20039;-84
2022/06/16 01:35:33;;;;;;;4.90;2.33;;;13.90;99.90;;;;;;5101528;28;20006;-85
2022/06/16 01:38:28;;;;;;;3.85;2.50;;;13.90;99.90;;;;;;5099974;28;20047;-84
2022/06/16 01:41:35;;;;;;;7.70;2.95;;;13.90;99.90;;;;;;5073857;28;20169;-84
2022/06/16 01:44:15;;;;;;;4.93;2.83;;;13.90;99.90;;;;;;5095321;28;20055;-85
2022/06/16 01:46:44;;;;;;;5.43;2.95;;;13.80;99.90;;;;;;5093894;28;20104;-84
2022/06/16 01:49:18;;;;;;;4.30;2.90;;;13.80;99.90;;;;;;5095134;28;20051;-84
2022/06/16 01:51:54;;;;;;;6.35;2.95;;;13.80;99.90;;;;;;5095147;28;20048;-85
2022/06/16 01:54:37;;;;;;;4.15;2.60;;;13.80;99.90;;;;;;5093386;28;20052;-84
2022/06/16 01:57:16;;;;;;;5.13;2.63;;;13.80;99.90;;;;;;5094003;28;20450;-84
2022/06/16 02:00:05;;;;;;;3.97;2.35;;;13.80;99.90;;;;;;5094733;28;20507;-86
2022/06/16 02:02:35;;;;;;;5.43;2.80;;;13.70;99.90;;;;;;5093850;28;20052;-83
2022/06/16 02:05:12;;;;;;;3.83;2.45;;;13.70;99.90;;;;;;5094829;28;20048;-83
2022/06/16 02:08:03;;;;;;;5.95;2.83;;;13.70;99.90;;;;;;5094663;28;20051;-83
2022/06/16 02:10:36;;;;;;;5.70;3.05;;;13.70;99.90;;;;;;5095197;28;20093;-82
2022/06/16 02:13:05;;;;;;;5.47;3.25;;;13.70;99.90;;;;;;5076898;28;20492;-82
2022/06/16 02:16:01;;;;;;;4.10;2.90;;;13.70;99.90;;;;;;5093468;28;20063;-83
2022/06/16 02:18:35;;;;;;;4.75;2.90;;;13.70;99.90;;;;;;5094850;28;20079;-83
2022/06/16 02:21:23;;;;;;;5.55;3.08;;;13.70;99.90;;;;;;5094108;28;20046;-83
2022/06/16 02:23:51;;;;;;;5.68;3.20;;;13.70;99.90;;;;;;5095118;28;20055;-83
2022/06/16 02:26:16;;;;;;;3.47;2.65;;;13.70;99.90;;;;;;5094423;28;20048;-82
2022/06/16 02:28:48;;;;;;;4.07;2.45;;;13.70;99.90;;;;;;5094502;28;20052;-83
2022/06/16 02:31:29;;;;;;;5.68;2.88;;;13.70;99.90;;;;;;5094670;28;20051;-82
2022/06/16 02:34:03;;;;;;;3.83;2.60;;;13.80;99.90;;;;;;5093093;28;20126;-83
2022/06/16 02:36:53;;;;;;;7.70;2.55;;;13.80;99.90;;;;;;5094209;28;20085;-82
2022/06/16 02:39:40;;;;;;;7.18;2.47;;;13.80;99.90;;;;;;5094156;28;20048;-82
2022/06/16 02:42:21;;;;;;;5.80;2.47;;;13.80;99.90;;;;;;5094273;28;20056;-83
2022/06/16 02:45:08;;;;;;;6.22;2.72;;;13.80;99.90;;;;;;5094213;28;20044;-84
2022/06/16 02:47:46;;;;;;;5.63;2.50;;;13.80;99.90;;;;;;5093700;28;20137;-84
2022/06/16 02:50:43;;;;;;;5.28;2.67;;;13.80;99.90;;;;;;5094096;28;20113;-84
2022/06/16 02:56:33;;;;;;;3.35;2.08;;;13.90;99.90;;;;;;5092976;28;20044;-83
2022/06/16 02:59:09;;;;;;;3.92;2.45;;;13.80;99.90;;;;;;5082428;28;20051;-83
2022/06/16 03:01:35;;;;;;;4.18;2.22;;;13.90;99.90;;;;;;5094121;28;20054;-83
2022/06/16 03:04:11;;;;;;;5.85;2.70;;;13.90;99.90;;;;;;5093065;28;20365;-83
2022/06/16 03:06:37;;;;;;;5.20;2.88;;;13.90;99.90;;;;;;5094238;28;20504;-83
2022/06/16 03:09:04;;;;;;;4.85;2.40;;;13.80;99.90;;;;;;5093790;28;20503;-82
2022/06/16 03:11:32;;;;;;;5.57;2.92;;;13.90;99.90;;;;;;5092803;28;20070;-83
2022/06/16 03:13:58;;;;;;;3.83;2.78;;;13.90;99.90;;;;;;5094008;28;20054;-83
2022/06/16 03:16:23;;;;;;;5.15;2.70;;;13.80;99.90;;;;;;5092009;28;20036;-84
2022/06/16 03:18:50;;;;;;;4.22;3.15;;;13.80;99.90;;;;;;5093250;28;20084;-84
2022/06/16 03:21:16;;;;;;;5.03;2.78;;;13.80;99.90;;;;;;5093698;28;20051;-83
2022/06/16 03:23:41;;;;;;;4.93;2.97;;;13.80;99.90;;;;;;5092770;28;20416;-83
2022/06/16 03:26:07;;;;;;;5.47;2.70;;;13.80;99.90;;;;;;5093639;28;20036;-83
2022/06/16 03:28:33;;;;;;;5.35;2.75;;;13.80;99.90;;;;;;5093913;28;20357;-84
2022/06/16 03:30:58;;;;;;;5.13;2.72;;;13.70;99.90;;;;;;5093626;28;20044;-83
2022/06/16 03:33:24;;;;;;;5.50;3.10;;;13.70;99.90;;;;;;5075999;28;20159;-84
2022/06/16 03:35:50;;;;;;;4.25;2.70;;;13.70;99.90;;;;;;5092413;28;20093;-84
2022/06/16 03:41:01;;;;;;;4.57;2.42;;;13.70;99.90;;;;;;5093616;28;20055;-83
2022/06/16 03:43:26;;;;;;;2.97;2.30;;;13.70;99.90;;;;;;5092414;28;20043;-82
2022/06/16 03:45:52;;;;;;;3.33;2.17;;;13.70;99.90;;;;;;5092759;28;20345;-83
2022/06/16 03:48:18;;;;;;;3.75;2.50;;;13.70;99.90;;;;;;5093511;28;20541;-83
2022/06/16 03:50:43;;;;;;;5.13;2.85;;;13.70;99.90;;;;;;5093436;28;20399;-84
2022/06/16 03:53:10;;;;;;;4.53;2.85;;;13.80;99.90;;;;;;5093457;28;20365;-84
2022/06/16 03:55:36;;;;;;;4.75;2.35;;;13.80;99.90;;;;;;5075021;28;20056;-85
2022/06/16 03:58:01;;;;;;;5.32;2.47;;;13.80;99.90;;;;;;5093403;28;20364;-84
2022/06/16 04:00:27;;;;;;;2.83;2.00;;;13.80;99.90;;;;;;5093300;28;20123;-83
2022/06/16 04:05:38;;;;;;;4.07;2.10;;;13.90;99.90;;;;;;5093511;28;20040;-83
2022/06/16 04:08:04;;;;;;;3.28;1.77;;;13.90;99.90;;;;;;5093253;28;20083;-82
2022/06/16 04:10:30;;;;;;;4.60;1.80;;;13.90;99.90;;;;;;5093545;28;20048;-84
2022/06/16 04:12:55;;;;;;;5.88;1.80;;;13.90;99.90;;;;;;5093263;28;20135;-82
2022/06/16 04:15:21;;;;;;;4.85;2.00;;;14.00;99.90;;;;;;5092204;28;20036;-83
2022/06/16 04:17:47;;;;;;;3.20;2.08;;;14.00;99.90;;;;;;5092600;28;20388;-84
2022/06/16 04:20:12;;;;;;;4.40;2.33;;;14.10;99.90;;;;;;5092813;28;20044;-82
2022/06/16 04:22:39;;;;;;;2.00;1.45;;;14.10;99.90;;;;;;5092140;28;20047;-83
2022/06/16 04:25:06;;;;;;;3.95;1.70;;;14.10;99.90;;;;;;5093425;28;20079;-83
2022/06/16 04:27:32;;;;;;;4.07;2.10;;;14.20;99.90;;;;;;5093125;28;20059;-85
2022/06/16 04:29:58;;;;;;;5.47;2.03;;;14.20;99.90;;;;;;5093717;28;20044;-85
2022/06/16 04:32:24;;;;;;;4.15;1.88;;;14.20;99.90;;;;;;5096686;28;20040;-83
2022/06/16 04:34:49;;;;;;;4.00;2.15;;;14.20;99.90;;;;;;5095393;28;20048;-84
2022/06/16 04:37:15;;;;;;;5.90;2.10;;;14.20;99.90;;;;;;5096566;28;20048;-84
2022/06/16 04:39:41;;;;;;;5.63;2.25;;;14.20;99.90;;;;;;5096546;28;20101;-85
2022/06/16 04:42:07;;;;;;;3.83;1.98;;;14.20;99.90;;;;;;5095352;28;20076;-84
2022/06/16 04:44:34;;;;;;;4.30;2.30;;;14.20;99.90;;;;;;5096510;28;20044;-84
2022/06/16 04:47:02;;;;;;;4.20;2.65;;;14.20;99.90;;;;;;5095593;28;20541;-83
2022/06/16 04:49:28;;;;;;;4.15;1.90;;;14.30;99.90;;;;;;5099793;28;20071;-85
2022/06/16 04:51:54;;;;;;;3.67;1.60;;;14.20;99.90;;;;;;5107452;28;20105;-82
2022/06/16 04:54:20;;;;;;;2.75;1.67;;;14.20;99.90;;;;;;5103462;28;20056;-84
2022/06/16 04:56:45;;;;;;;4.28;1.92;;;14.20;99.90;;;;;;5097861;28;20131;-84
2022/06/16 04:59:13;;;;;;;4.32;1.55;;;14.20;99.90;;;;;;5096407;28;20553;-85
2022/06/16 05:01:39;;;;;;;2.90;1.70;;;14.20;99.90;;;;;;5062058;28;20052;-84
2022/06/16 05:04:06;;;;;;;2.30;1.70;;;14.20;99.90;;;;;;5095009;28;20059;-84
2022/06/16 05:06:31;;;;;;;4.15;2.05;;;14.30;99.90;;;;;;5096132;28;20047;-83
2022/06/16 05:08:57;;;;;;;3.97;1.80;;;14.30;99.90;;;;;;5078306;28;20048;-84
2022/06/16 05:11:23;;;;;;;3.20;2.15;;;14.30;99.90;;;;;;5094912;28;20392;-84
2022/06/16 05:13:49;;;;;;;4.32;1.58;;;14.40;99.90;;;;;;5096094;28;20494;-84
2022/06/16 05:16:14;;;;;;;2.85;1.00;;;14.40;99.90;;;;;;5095208;28;20373;-84
2022/06/16 05:18:40;;;;;;;3.30;1.30;;;14.40;99.90;;;;;;5095860;28;20084;-84
2022/06/16 05:21:08;;;;;;;4.70;1.30;;;14.40;99.90;;;;;;5094617;28;20048;-82
2022/06/16 05:23:34;;;;;;;4.05;1.20;;;14.40;99.90;;;;;;5094821;28;20044;-83
2022/06/16 05:26:00;;;;;;;3.03;1.15;;;14.50;99.90;;;;;;5095669;28;20400;-84
2022/06/16 05:28:26;;;;;;;1.92;1.13;;;14.60;99.90;;;;;;5095550;28;20043;-88
2022/06/16 05:30:52;;;;;;;2.88;1.23;;;14.60;99.90;;;;;;5095524;28;20044;-88
2022/06/16 05:33:18;;;;;;;3.38;1.33;;;14.70;99.90;;;;;;5061280;28;20048;-86
2022/06/16 05:35:53;;;;;;;3.58;1.00;;;14.80;99.90;;;;;;5095426;28;20044;-88
2022/06/16 05:38:19;;;;;;;3.05;1.00;;;14.80;99.90;;;;;;5094883;28;20380;-84
2022/06/16 05:40:45;;;;;;;2.97;1.23;;;14.80;99.90;;;;;;5077271;28;20055;-83
2022/06/16 05:43:10;;;;;;;3.28;1.48;;;14.90;99.90;;;;;;5095344;28;20043;-84
2022/06/16 05:45:36;;;;;;;2.42;0.80;;;14.90;99.90;;;;;;5095413;28;20074;-87
2022/06/16 05:48:02;;;;;;;1.70;0.80;;;15.00;99.90;;;;;;5094765;28;20044;-83
2022/06/16 05:50:27;;;;;;;3.03;0.90;;;15.00;99.90;;;;;;5094075;28;20487;-83
2022/06/16 05:52:53;;;;;;;2.75;0.90;;;15.00;99.90;;;;;;5095865;28;20047;-84
2022/06/16 05:55:19;;;;;;;2.03;0.73;;;15.10;99.90;;;;;;5076988;28;20442;-83
2022/06/16 05:57:44;;;;;;;2.38;0.80;;;15.10;99.90;;;;;;5093984;28;20048;-82
2022/06/16 06:00:11;;;;;;;3.47;0.80;;;15.10;99.90;;;;;;5095038;28;20048;-83
2022/06/16 06:02:37;;;;;;;2.95;0.80;;;15.10;99.90;;;;;;5094995;28;20052;-82
2022/06/16 06:05:03;;;;;;;3.35;0.82;;;15.20;99.90;;;;;;5095425;28;20509;-83
2022/06/16 06:16:25;;;;;;;3.83;0.85;;;15.20;99.90;;;;;;5094871;28;20074;-83
2022/06/16 06:18:27;;;;;;;2.92;0.75;;;15.30;99.90;;;;;;5095018;28;20093;-84
2022/06/16 06:20:53;;;;;;;1.08;0.60;;;15.40;99.90;;;;;;5093360;28;20070;-84
2022/06/16 06:23:19;;;;;;;3.83;1.10;;;15.40;99.90;;;;;;5093818;28;20040;-83
2022/06/16 06:25:45;;;;;;;3.00;2.25;;;15.50;99.90;;;;;;5094848;28;20384;-81
2022/06/16 06:28:14;;;;;;;5.97;3.53;;;15.50;99.90;;;;;;5094478;28;20040;-83
2022/06/16 06:30:40;;;;;;;12.40;11.05;;;15.50;99.90;;;;;;5094557;28;20070;-83
2022/06/16 06:33:06;;;;;;;19.20;17.20;;;15.60;99.90;;;;;;5094404;28;20618;-83
2022/06/16 06:35:32;;;;;;;9.68;6.95;;;15.60;99.90;;;;;;5094059;28;20556;-83
2022/06/16 06:37:58;;;;;;;5.22;4.38;;;15.70;99.90;;;;;;5093300;28;20103;-82
2022/06/16 06:40:31;;;;;;;4.20;3.80;;;15.70;99.90;;;;;;5094499;28;20131;-81
2022/06/16 06:42:57;;;;;;;3.15;2.70;;;15.70;99.90;;;;;;5094666;28;20400;-82
2022/06/16 06:45:23;;;;;;;4.07;2.50;;;15.80;99.90;;;;;;5094212;28;20036;-82
2022/06/16 06:47:50;;;;;;;3.70;2.00;;;15.80;99.90;;;;;;5093647;28;20051;-82
2022/06/16 06:50:25;;;;;;;2.63;0.90;;;15.90;99.90;;;;;;5094139;28;20048;-83
2022/06/16 06:52:52;;;;;;;1.80;0.70;;;15.90;99.90;;;;;;5093485;28;20434;-82
2022/06/16 06:55:19;;;;;;;3.30;1.00;;;15.90;99.90;;;;;;5092751;28;20457;-82
2022/06/16 06:57:46;;;;;;;3.25;1.00;;;15.90;99.90;;;;;;5094082;28;20087;-83
2022/06/16 07:00:15;;;;;;;1.85;1.15;;;15.90;99.90;;;;;;5094082;28;20048;-81
2022/06/16 07:02:41;;;;;;;1.88;0.68;;;15.90;99.90;;;;;;5075671;28;20126;-83
2022/06/16 07:05:07;;;;;;;1.75;0.60;;;16.00;99.90;;;;;;5093564;28;20403;-82
2022/06/16 07:07:35;;;;;;;2.65;1.73;;;16.00;99.90;;;;;;5093951;28;20050;-83
2022/06/16 07:10:00;;;;;;;3.28;2.40;;;16.00;99.90;;;;;;5093248;28;20377;-73
2022/06/16 07:12:27;;;;;;;3.33;2.60;;;16.00;99.90;;;;;;5093705;28;20059;-72
2022/06/16 07:14:52;;;;;;;3.50;2.15;;;16.10;99.90;;;;;;5092655;28;20500;-72
2022/06/16 07:17:21;;;;;;;2.47;1.00;;;16.10;99.90;;;;;;5093186;28;20090;-72
2022/06/16 07:19:47;;;;;;;1.10;0.60;;;16.20;99.90;;;;;;5093657;28;20079;-72
2022/06/16 07:22:13;;;;;;;1.70;0.90;;;16.20;99.90;;;;;;5092800;28;20086;-73
2022/06/16 07:24:39;;;;;;;3.30;1.10;;;16.20;99.90;;;;;;5093931;28;20134;-73
2022/06/16 07:27:05;;;;;;;1.95;0.82;;;16.30;99.90;;;;;;5093283;28;20052;-72
2022/06/16 07:29:31;;;;;;;1.88;1.00;;;16.40;99.90;;;;;;5093413;28;20040;-72
2022/06/16 07:31:58;;;;;;;1.83;0.80;;;16.40;99.90;;;;;;5094298;28;20418;-73
2022/06/16 07:34:25;;;;;;;3.47;0.70;;;16.50;99.90;;;;;;5093752;28;20087;-73
2022/06/16 07:36:51;;;;;;;2.50;0.80;;;16.60;99.90;;;;;;5093030;28;20083;-74
2022/06/16 07:39:16;;;;;;;1.23;0.70;;;16.70;99.90;;;;;;5092801;28;20079;-71
2022/06/16 07:41:42;;;;;;;1.58;0.75;;;16.70;99.90;;;;;;5076205;28;20081;-72
2022/06/16 07:44:12;;;;;;;1.95;0.68;;;16.70;99.90;;;;;;5093713;28;20047;-73
2022/06/16 07:46:42;;;;;;;1.05;0.50;;;16.80;99.90;;;;;;5093528;28;20040;-72
2022/06/16 07:49:10;;;;;;;2.63;1.13;;;16.80;99.90;;;;;;5093560;28;20043;-73
2022/06/16 07:51:35;;;;;;;1.92;1.00;;;16.90;99.90;;;;;;5093627;28;20119;-74
2022/06/16 07:54:01;;;;;;;2.25;0.80;;;17.00;99.90;;;;;;5075724;28;20143;-73
2022/06/16 07:56:27;;;;;;;1.75;0.75;;;17.10;99.90;;;;;;5093987;28;20218;-75
2022/06/16 07:58:53;;;;;;;2.70;0.80;;;17.10;99.90;;;;;;5091927;28;20075;-74
2022/06/16 08:01:19;;;;;;;1.20;0.65;;;17.10;99.90;;;;;;5090253;28;20040;-75
2022/06/16 08:03:45;;;;;;;1.85;0.77;;;17.20;99.90;;;;;;5093182;28;20044;-75
2022/06/16 08:06:15;;;;;;;1.05;0.80;;;17.20;99.90;;;;;;5095302;28;20039;-73
2022/06/16 08:08:41;;;;;;;1.17;0.60;;;17.30;99.90;;;;;;5096790;28;20075;-75
2022/06/16 08:12:03;;;;;;;2.30;0.40;;;17.30;99.90;;;;;;5105146;28;20040;-76
2022/06/16 08:13:54;;;;;;;1.83;0.40;;;17.40;99.90;;;;;;5100280;28;20044;-75
2022/06/16 08:16:21;;;;;;;1.30;0.40;;;17.40;99.90;;;;;;5098478;28;20240;-74
2022/06/16 08:18:47;;;;;;;1.30;0.45;;;17.50;99.90;;;;;;5098438;28;20072;-75
2022/06/16 08:21:13;;;;;;;1.75;0.35;;;17.50;99.90;;;;;;5097314;28;20498;-75
2022/06/16 08:23:38;;;;;;;0.75;0.30;;;17.50;99.90;;;;;;5089386;28;20074;-76
2022/06/16 08:26:04;;;;;;;2.25;0.40;;;17.50;99.90;;;;;;5090412;28;20471;-76
2022/06/16 08:28:33;;;;;;;1.95;0.50;;;17.60;99.90;;;;;;5090080;28;20058;-76
2022/06/16 08:31:01;;;;;;;0.85;0.45;;;17.60;99.90;;;;;;5087617;28;20086;-75
2022/06/16 08:33:27;;;;;;;1.35;0.50;;;17.70;99.90;;;;;;5089866;28;20583;-79
2022/06/16 08:35:53;;;;;;;1.17;0.50;;;17.70;99.90;;;;;;5087858;28;20111;-80
2022/06/16 08:38:19;;;;;;;1.90;0.60;;;17.70;99.90;;;;;;5090500;28;20123;-78
2022/06/16 08:40:47;;;;;;;1.38;0.50;;;17.70;99.90;;;;;;5089515;28;20047;-81
2022/06/16 08:43:33;;;;;;;2.45;0.70;;;17.80;99.90;;;;;;5087720;28;20036;-79
2022/06/16 08:46:04;;;;;;;2.00;0.60;;;17.80;99.90;;;;;;5090601;28;20079;-80
2022/06/16 08:48:43;;;;;;;2.03;0.50;;;17.90;99.90;;;;;;5088349;28;20123;-80
2022/06/16 08:51:21;;;;;;;1.77;0.60;;;17.90;99.90;;;;;;5085464;28;20451;-81
2022/06/16 08:53:52;;;;;;;2.15;0.60;;;17.90;99.90;;;;;;5091601;28;20115;-77
2022/06/16 08:56:36;;;;;;;2.20;0.60;;;18.00;99.90;;;;;;5086526;28;20113;-79
2022/06/16 08:59:24;;;;;;;0.95;0.50;;;18.00;99.90;;;;;;5090005;28;20047;-80
2022/06/16 09:02:00;;;;;;;1.00;0.40;;;18.10;99.90;;;;;;5088006;28;20051;-81
2022/06/16 09:04:31;;;;;;;1.52;0.55;;;18.20;99.90;;;;;;5090977;28;20039;-80
2022/06/16 09:07:18;;;;;;;2.17;0.50;;;18.30;99.90;;;;;;5086705;28;20040;-80
2022/06/16 09:10:14;;;;;;;2.45;0.65;;;18.30;99.90;;;;;;5089135;28;20139;-79
2022/06/16 09:13:18;;;;;;;1.92;0.60;;;18.30;99.90;;;;;;5087189;28;20062;-78
2022/06/16 09:16:09;;;;;;;2.40;0.60;;;18.40;99.90;;;;;;5084728;28;20055;-78
2022/06/16 09:19:15;;;;;;;1.00;0.50;;;18.40;98.50;;;;;;5085779;28;20074;-80
2022/06/16 09:21:50;;;;;;;1.63;0.90;;;18.40;98.30;;;;;;5076606;28;20044;-77
2022/06/16 09:24:16;;;;;;;1.58;0.50;;;18.40;98.00;;;;;;5092614;28;20127;-80
2022/06/16 09:26:47;;;;;;;1.52;0.60;;;18.40;97.60;;;;;;5092570;28;20124;-79
2022/06/16 09:29:32;;;;;;;4.07;0.60;;;18.50;95.40;;;;;;5091423;28;20067;-80
2022/06/16 09:32:07;;;;;;;1.25;0.60;;;18.50;94.50;;;;;;5092787;28;20047;-79
2022/06/16 09:35:13;;;;;;;2.83;0.70;;;18.50;95.80;;;;;;5092060;28;20043;-79
2022/06/16 09:38:09;;;;;;;1.77;0.70;;;18.60;96.80;;;;;;5065922;28;20571;-80
2022/06/16 09:40:40;;;;;;;1.15;0.73;;;18.60;96.80;;;;;;5090799;28;20048;-79
2022/06/16 09:43:28;;;;;;;2.65;0.60;;;18.70;96.20;;;;;;5094159;28;20161;-78
2022/06/16 09:45:59;;;;;;;1.95;1.10;;;18.80;95.70;;;;;;5091393;28;20040;-79
2022/06/16 09:48:49;;;;;;;2.42;0.80;;;18.80;95.60;;;;;;5093238;28;20083;-78
2022/06/16 09:51:23;;;;;;;1.48;0.98;;;18.80;95.90;;;;;;5090929;28;20396;-78
2022/06/16 09:54:01;;;;;;;3.47;1.15;;;18.90;96.40;;;;;;5090903;28;20036;-78
2022/06/16 09:56:37;;;;;;;3.78;1.02;;;19.00;96.00;;;;;;5093760;28;20094;-78
2022/06/16 09:59:04;;;;;;;2.30;1.00;;;19.10;96.30;;;;;;5092955;28;20437;-78
2022/06/16 10:01:48;;;;;;;2.35;0.90;;;19.10;96.10;;;;;;5091143;28;20427;-77
2022/06/16 10:04:14;;;;;;;3.38;1.20;;;19.20;96.40;;;;;;5091730;28;20051;-78
2022/06/16 10:07:04;;;;;;;2.70;1.40;;;19.20;97.00;;;;;;5093789;28;20032;-77
2022/06/16 10:09:39;;;;;;;1.58;1.10;;;19.30;97.10;;;;;;5091115;28;20043;-78
2022/06/16 10:12:08;;;;;;;3.20;1.40;;;19.40;97.20;;;;;;5093651;28;20050;-78
2022/06/16 10:14:36;;;;;;;3.13;1.27;;;19.40;96.90;;;;;;5092398;28;20040;-77
2022/06/16 10:17:07;;;;;;;2.45;1.00;;;19.40;96.50;;;;;;5091850;28;20044;-79
2022/06/16 10:19:39;;;;;;;3.47;2.03;;;19.50;96.60;;;;;;5091213;28;20043;-79
2022/06/16 10:22:07;;;;;;;5.45;2.20;;;19.50;96.50;;;;;;5093366;28;20048;-78
2022/06/16 10:24:41;;;;;;;2.88;2.20;;;19.60;96.80;;;;;;5092919;28;20492;-78
2022/06/16 10:27:09;;;;;;;4.03;2.30;;;19.60;97.40;;;;;;5093250;28;20054;-78
2022/06/16 10:29:36;;;;;;;3.80;2.25;;;19.60;97.00;;;;;;5091476;28;20035;-76
2022/06/16 10:32:02;;;;;;;5.38;2.40;;;19.70;97.20;;;;;;5093369;28;20070;-79
2022/06/16 10:34:30;;;;;;;4.18;2.90;;;19.70;96.30;;;;;;5093263;28;20097;-79
2022/06/16 10:37:17;;;;;;;3.45;1.73;;;19.70;96.10;;;;;;5092865;28;20526;-80
2022/06/16 10:39:49;;;;;;;3.35;1.88;;;19.70;95.80;;;;;;5090941;28;20040;-80
2022/06/16 10:42:20;;;;;;;3.80;1.70;;;19.70;94.80;;;;;;5089969;28;20039;-80
2022/06/16 10:44:56;;;;;;;6.53;2.80;;;19.70;95.00;;;;;;5092081;28;20044;-78
2022/06/16 10:47:31;;;;;;;4.00;2.40;;;19.80;94.80;;;;;;5092573;28;20040;-79
2022/06/16 10:49:57;;;;;;;3.78;2.17;;;19.80;94.90;;;;;;5091382;28;20055;-78
2022/06/16 10:52:41;;;;;;;3.22;1.80;;;19.80;94.90;;;;;;5092950;28;20032;-81
2022/06/16 10:55:14;;;;;;;4.25;1.90;;;19.80;95.20;;;;;;5092473;28;20056;-78
2022/06/16 10:57:45;;;;;;;2.42;1.80;;;19.90;94.70;;;;;;5093003;28;20060;-79
2022/06/16 11:00:14;;;;;;;2.88;1.83;;;19.90;94.80;;;;;;5090464;28;20068;-78
2022/06/16 11:03:09;;;;;;;5.45;3.00;;;19.90;94.80;;;;;;5092896;28;20044;-78
2022/06/16 11:05:48;;;;;;;5.65;2.67;;;19.90;94.40;;;;;;5091016;28;20070;-80
2022/06/16 11:08:14;;;;;;;3.17;2.28;;;20.00;93.40;;;;;;5090909;28;20105;-80
2022/06/16 11:10:50;;;;;;;4.28;2.70;;;20.00;94.00;;;;;;5092635;28;20055;-76
2022/06/16 11:13:20;;;;;;;4.30;2.70;;;20.10;93.60;;;;;;5089703;28;20039;-74
2022/06/16 11:15:50;;;;;;;3.75;1.98;;;20.10;93.40;;;;;;5074773;28;20400;-75
2022/06/16 11:18:20;;;;;;;3.85;2.03;;;20.10;94.00;;;;;;5091018;28;20047;-76
2022/06/16 11:20:49;;;;;;;3.50;2.55;;;20.10;94.10;;;;;;5091412;28;20097;-75
2022/06/16 11:23:43;;;;;;;3.42;2.80;;;20.20;94.00;;;;;;5092606;28;20071;-76
2022/06/16 11:26:24;;;;;;;4.82;2.78;;;20.20;93.90;;;;;;5092433;28;20478;-75
2022/06/16 11:28:56;;;;;;;3.92;2.15;;;20.30;93.80;;;;;;5089701;28;20052;-76
2022/06/16 11:31:33;;;;;;;5.32;2.50;;;20.30;93.70;;;;;;5092596;28;20123;-76
2022/06/16 11:34:29;;;;;;;3.38;2.10;;;20.30;93.60;;;;;;5091052;28;20044;-77
2022/06/16 11:37:12;;;;;;;4.18;2.58;;;20.30;93.30;;;;;;5089030;28;20059;-84
2022/06/16 11:39:43;;;;;;;4.45;1.90;;;20.30;93.20;;;;;;5093951;28;20138;-85
2022/06/16 11:42:41;;;;;;;4.57;1.88;;;20.40;93.10;;;;;;5097019;28;20058;-85
2022/06/16 11:45:28;;;;;;;3.45;2.70;;;20.40;93.30;;;;;;5091478;28;20063;-84
2022/06/16 11:48:00;;;;;;;3.80;2.45;;;20.50;93.20;;;;;;5096511;28;20043;-85
2022/06/16 11:50:50;;;;;;;4.73;3.43;;;20.50;93.40;;;;;;5097305;28;20135;-85
2022/06/16 11:53:19;;;;;;;3.17;2.78;;;20.60;93.50;;;;;;5096973;28;20511;-81
2022/06/16 11:56:03;;;;;;;5.43;2.97;;;20.60;93.00;;;;;;5096804;28;20103;-82
2022/06/16 11:58:48;;;;;;;3.10;2.08;;;20.60;93.00;;;;;;5096854;28;20121;-81
2022/06/16 12:01:19;;;;;;;3.40;2.70;;;20.60;93.50;;;;;;5096637;28;20484;-82
2022/06/16 12:04:03;;;;;;;4.28;2.85;;;20.60;93.30;;;;;;5095844;28;20095;-83
2022/06/16 12:06:51;;;;;;;5.93;3.40;;;20.70;93.60;;;;;;5096526;28;20040;-82
2022/06/16 12:09:25;;;;;;;5.53;3.00;;;20.80;93.90;;;;;;5096469;28;20134;-82
2022/06/16 12:12:01;;;;;;;3.55;2.80;;;20.80;93.50;;;;;;5096569;28;20446;-75
2022/06/16 12:14:36;;;;;;;5.07;3.30;;;20.90;92.90;;;;;;5095195;28;20051;-79
2022/06/16 12:17:24;;;;;;;6.25;2.95;;;20.90;92.40;;;;;;5096070;28;20054;-82
2022/06/16 12:20:25;;;;;;;7.10;3.13;;;20.90;92.70;;;;;;5096294;28;20174;-83
2022/06/16 12:23:17;;;;;;;3.88;2.70;;;21.00;92.50;;;;;;5096200;28;20056;-82
2022/06/16 12:25:56;;;;;;;4.60;3.40;;;20.90;92.00;;;;;;5067278;28;20048;-83
2022/06/16 12:28:24;;;;;;;5.68;3.90;;;20.90;93.20;;;;;;5096754;28;20044;-83
2022/06/16 12:31:05;;;;;;;7.10;4.03;;;20.90;93.20;;;;;;5094795;28;20070;-83
2022/06/16 12:33:50;;;;;;;7.75;4.45;;;20.90;93.20;;;;;;5096163;28;20141;-83
2022/06/16 12:36:46;;;;;;;7.10;4.00;;;20.90;93.70;;;;;;5094943;28;20044;-80
2022/06/16 12:39:44;;;;;;;5.18;3.75;;;20.90;93.60;;;;;;5096167;28;20105;-82
2022/06/16 12:42:16;;;;;;;5.22;3.47;;;21.00;94.30;;;;;;5080188;28;20503;-82
2022/06/16 12:44:52;;;;;;;5.63;3.45;;;21.00;93.90;;;;;;5094682;28;20044;-77
2022/06/16 12:47:31;;;;;;;4.72;3.50;;;21.00;93.80;;;;;;5094755;28;20079;-82
2022/06/16 12:50:02;;;;;;;4.40;3.95;;;21.00;93.60;;;;;;5095802;28;20083;-79
2022/06/16 12:52:35;;;;;;;3.63;3.17;;;21.00;93.10;;;;;;5095078;28;20059;-82
2022/06/16 12:55:17;;;;;;;5.85;3.97;;;21.10;93.50;;;;;;5095699;28;20125;-82
2022/06/16 12:58:11;;;;;;;5.05;3.70;;;21.20;93.80;;;;;;5087150;28;20098;-82
2022/06/16 13:00:45;;;;;;;6.00;3.80;;;21.20;93.70;;;;;;5078795;28;20500;-81
2022/06/16 13:03:20;;;;;;;4.82;2.65;;;21.20;93.70;;;;;;5095673;28;20483;-81
2022/06/16 13:05:46;;;;;;;5.97;3.90;;;21.20;94.20;;;;;;5095618;28;20135;-83
2022/06/16 13:08:14;;;;;;;6.90;3.28;;;21.20;93.70;;;;;;5095380;28;20044;-80
2022/06/16 13:10:44;;;;;;;4.28;3.42;;;21.20;93.60;;;;;;5094658;28;20047;-80
2022/06/16 13:13:10;;;;;;;3.85;2.58;;;21.20;92.70;;;;;;5094149;28;20041;-81
2022/06/16 13:15:43;;;;;;;5.10;3.17;;;21.20;93.20;;;;;;5095315;28;20040;-81
2022/06/16 13:18:23;;;;;;;5.88;3.38;;;21.20;92.90;;;;;;5094856;28;20119;-81
2022/06/16 13:20:53;;;;;;;6.25;2.97;;;21.20;92.90;;;;;;5095157;28;20044;-79
2022/06/16 13:23:27;;;;;;;4.05;2.42;;;21.30;92.90;;;;;;5094561;28;20373;-79
2022/06/16 13:26:06;;;;;;;3.50;2.85;;;21.30;92.20;;;;;;5095330;28;20400;-82
2022/06/16 13:28:37;;;;;;;4.50;2.35;;;21.40;91.70;;;;;;5127895;27;20044;-80
2022/06/16 13:31:09;;;;;;;3.53;2.45;;;21.40;91.30;;;;;;5128320;27;20113;-81
2022/06/16 13:33:48;;;;;;;3.25;2.75;;;21.40;91.50;;;;;;5095190;28;20071;-81
2022/06/16 13:36:23;;;;;;;5.05;2.97;;;21.40;91.40;;;;;;5094875;28;20040;-80